Time;durP1;ratioP1;P1;durP2;ratioP2;P2;SDS_P1;SDS_P2;PMS_P1;PMS_P2;Temp;Humidity;BMP_temperature;BMP_pressure;BME280_temperature;BME280_humidity;BME280_pressure;Samples;Min_cycle;Max_cycle;Signal;HPM_P1;HPM_P2
2022/10/13 00:00:05;;;;;;;907.75;845.25;;;;;;;10.28;61.21;101758.41;695505;28;23492;-63
2022/10/13 00:00:34;;;;;;;915.25;852.35;;;;;;;10.26;61.32;101763.13;694234;28;138001;-63
2022/10/13 00:00:55;;;;;;;921.03;858.13;;;;;;;10.24;61.17;101759.72;695072;28;46301;-62
2022/10/13 00:01:18;;;;;;;925.65;862.58;;;;;;;10.24;61.09;101760.56;695629;28;21506;-63
2022/10/13 00:01:40;;;;;;;920.08;857.08;;;;;;;10.23;61.49;101758.84;693143;28;92306;-63
2022/10/13 00:02:01;;;;;;;925.53;862.35;;;;;;;10.24;61.24;101759.72;694927;28;44135;-64
2022/10/13 00:02:26;;;;;;;926.63;863.38;;;;;;;10.23;61.45;101760.72;694007;28;69387;-62
2022/10/13 00:02:47;;;;;;;921.87;858.83;;;;;;;10.23;61.08;101758.84;694759;28;46290;-61
2022/10/13 00:03:09;;;;;;;917.38;854.50;;;;;;;10.22;61.18;101762.59;695002;28;44433;-62
2022/10/13 00:03:30;;;;;;;920.05;857.10;;;;;;;10.20;61.34;101756.50;696740;28;23420;-62
2022/10/13 00:03:52;;;;;;;937.67;874.15;;;;;;;10.17;61.47;101759.50;698496;28;21531;-64
2022/10/13 00:04:17;;;;;;;938.05;874.50;;;;;;;10.17;61.53;101753.22;694466;28;138013;-61
2022/10/13 00:04:38;;;;;;;931.75;868.40;;;;;;;10.15;61.30;101752.53;698290;28;22404;-64
2022/10/13 00:04:59;;;;;;;926.38;863.17;;;;;;;10.14;61.44;101753.50;697930;28;22383;-63
2022/10/13 00:05:22;;;;;;;935.05;871.58;;;;;;;10.14;61.53;101754.38;694121;28;69390;-64
2022/10/13 00:05:45;;;;;;;907.28;844.78;;;;;;;10.14;61.29;101753.50;694871;28;46395;-62
2022/10/13 00:06:09;;;;;;;905.50;843.13;;;;;;;10.14;61.63;101756.22;694045;28;67476;-62
2022/10/13 00:06:31;;;;;;;905.42;842.92;;;;;;;10.14;61.71;101756.22;694381;28;69428;-62
2022/10/13 00:06:52;;;;;;;914.78;852.03;;;;;;;10.14;61.36;101750.81;696421;28;67506;-63
2022/10/13 00:07:23;;;;;;;926.33;863.05;;;;;;;10.12;61.75;101753.66;694191;28;137739;-62
2022/10/13 00:07:44;;;;;;;930.45;867.10;;;;;;;10.13;61.53;101757.25;696073;28;92082;-61
2022/10/13 00:08:06;;;;;;;940.65;877.05;;;;;;;10.13;61.64;101757.25;697415;28;46312;-62
2022/10/13 00:08:34;;;;;;;927.88;864.53;;;;;;;10.12;61.47;101750.13;691304;28;137973;-63
2022/10/13 00:08:55;;;;;;;919.38;856.47;;;;;;;10.10;61.54;101752.97;694830;28;46315;-63
2022/10/13 00:09:17;;;;;;;921.05;858.10;;;;;;;10.10;61.57;101750.28;695568;28;22252;-63
2022/10/13 00:09:38;;;;;;;929.95;866.75;;;;;;;10.09;62.00;101746.72;694874;28;44401;-63
2022/10/13 00:09:59;;;;;;;921.67;858.75;;;;;;;10.09;62.01;101752.13;697207;28;22394;-62
2022/10/13 00:10:24;;;;;;;919.40;856.45;;;;;;;10.06;61.90;101736.22;698077;28;21679;-62
2022/10/13 00:10:46;;;;;;;929.33;866.08;;;;;;;10.08;61.87;101753.13;694987;28;113574;-62
2022/10/13 00:11:11;;;;;;;927.85;864.70;;;;;;;10.07;61.91;101750.56;697462;28;46349;-61
2022/10/13 00:11:32;;;;;;;912.90;850.13;;;;;;;10.08;61.60;101746.88;693001;28;115094;-63
2022/10/13 00:11:55;;;;;;;922.42;859.42;;;;;;;10.06;61.68;101752.44;695669;28;21397;-62
2022/10/13 00:12:17;;;;;;;916.55;853.67;;;;;;;10.05;61.87;101749.88;693236;28;92246;-62
2022/10/13 00:12:39;;;;;;;927.45;864.17;;;;;;;10.06;61.88;101748.84;695542;28;23515;-62
2022/10/13 00:13:05;;;;;;;927.92;864.78;;;;;;;10.05;61.95;101749.88;692532;28;114998;-61
2022/10/13 00:13:27;;;;;;;910.78;848.05;;;;;;;10.04;62.10;101746.31;693428;28;69411;-63
2022/10/13 00:13:49;;;;;;;900.33;837.92;;;;;;;10.05;61.96;101749.88;694928;28;44545;-62
2022/10/13 00:14:11;;;;;;;924.42;861.42;;;;;;;10.06;62.21;101748.84;695016;28;44394;-63
2022/10/13 00:14:32;;;;;;;915.58;852.92;;;;;;;10.05;62.18;101747.19;693844;28;69269;-61
2022/10/13 00:14:54;;;;;;;919.13;856.42;;;;;;;10.04;61.86;101749.00;695679;28;21522;-62
2022/10/13 00:15:15;;;;;;;919.05;856.13;;;;;;;10.02;62.03;101753.72;695559;28;22421;-62
2022/10/13 00:15:37;;;;;;;940.17;876.40;;;;;;;10.03;62.10;101746.47;695604;28;22405;-63
2022/10/13 00:16:02;;;;;;;917.00;854.13;;;;;;;10.03;61.96;101741.94;694908;28;46127;-62
2022/10/13 00:16:25;;;;;;;930.38;867.08;;;;;;;10.04;62.21;101748.16;691324;28;138595;-62
2022/10/13 00:16:46;;;;;;;932.05;868.65;;;;;;;10.04;61.97;101749.00;695538;28;23518;-61
2022/10/13 00:17:08;;;;;;;931.78;868.30;;;;;;;10.04;62.09;101740.06;695201;28;21544;-63
2022/10/13 00:17:29;;;;;;;924.90;861.72;;;;;;;10.02;61.88;101739.38;693729;28;69608;-63
2022/10/13 00:17:51;;;;;;;938.28;874.78;;;;;;;10.03;61.89;101749.16;695587;28;21488;-61
2022/10/13 00:18:12;;;;;;;922.45;859.40;;;;;;;10.02;62.00;101742.91;695708;28;21289;-63
2022/10/13 00:18:34;;;;;;;912.08;849.25;;;;;;;10.02;61.83;101744.78;694266;28;46256;-62
2022/10/13 00:18:56;;;;;;;920.10;857.13;;;;;;;10.02;62.14;101744.78;694818;28;45237;-63
2022/10/13 00:19:17;;;;;;;915.92;853.10;;;;;;;10.00;61.73;101744.94;695644;28;23360;-63
2022/10/13 00:19:38;;;;;;;922.58;859.47;;;;;;;10.00;62.03;101744.06;695610;28;23467;-63
2022/10/13 00:19:59;;;;;;;917.53;854.63;;;;;;;10.00;61.77;101741.34;694873;28;46331;-63
2022/10/13 00:20:23;;;;;;;907.03;844.50;;;;;;;9.97;61.79;101736.25;695674;28;21545;-63
2022/10/13 00:20:46;;;;;;;919.15;856.15;;;;;;;9.96;61.87;101740.81;693257;28;90361;-63
2022/10/13 00:21:08;;;;;;;923.28;860.20;;;;;;;9.96;61.77;101743.50;694087;28;69441;-63
2022/10/13 00:21:34;;;;;;;915.00;852.20;;;;;;;9.95;61.91;101744.50;694323;28;60941;-63
2022/10/13 00:21:55;;;;;;;915.05;852.15;;;;;;;9.92;62.12;101737.56;694764;28;46298;-63
2022/10/13 00:22:16;;;;;;;923.67;860.67;;;;;;;9.90;62.31;101742.25;695767;28;21541;-64
2022/10/13 00:22:38;;;;;;;931.67;868.45;;;;;;;9.91;62.02;101737.72;694822;28;44350;-63
2022/10/13 00:22:59;;;;;;;931.53;868.33;;;;;;;9.93;62.28;101741.09;695602;28;22285;-63
2022/10/13 00:23:22;;;;;;;918.58;855.88;;;;;;;9.92;61.98;101740.28;695675;28;22368;-63
2022/10/13 00:23:43;;;;;;;920.97;858.05;;;;;;;9.92;62.18;101745.66;693762;28;68314;-63
2022/10/13 00:24:05;;;;;;;932.15;868.85;;;;;;;9.93;62.07;101744.66;695529;28;22378;-63
2022/10/13 00:24:26;;;;;;;923.30;860.17;;;;;;;9.93;62.36;101747.34;694710;28;45256;-63
2022/10/13 00:24:50;;;;;;;918.90;855.90;;;;;;;9.93;61.94;101747.34;698357;28;22523;-63
2022/10/13 00:25:12;;;;;;;912.53;849.72;;;;;;;9.94;62.34;101742.81;695813;28;91728;-62
2022/10/13 00:25:33;;;;;;;906.08;843.45;;;;;;;9.95;62.11;101743.66;697583;28;46554;-61
2022/10/13 00:25:54;;;;;;;900.55;838.15;;;;;;;9.95;62.12;101746.34;698478;28;23434;-63
2022/10/13 00:26:16;;;;;;;910.15;847.50;;;;;;;9.95;62.08;101741.81;698434;28;23469;-63
2022/10/13 00:26:38;;;;;;;914.00;851.25;;;;;;;9.96;62.44;101748.06;697515;28;46302;-63
2022/10/13 00:27:01;;;;;;;924.95;861.65;;;;;;;9.96;62.29;101745.38;695417;28;92138;-62
2022/10/13 00:27:23;;;;;;;924.50;861.15;;;;;;;9.96;62.31;101742.66;696994;28;46322;-63
2022/10/13 00:27:44;;;;;;;910.40;847.70;;;;;;;9.96;62.26;101748.06;698166;28;22439;-63
2022/10/13 00:28:06;;;;;;;917.40;854.50;;;;;;;9.96;62.34;101739.97;698608;28;11338;-63
2022/10/13 00:28:28;;;;;;;930.70;867.22;;;;;;;9.98;62.37;101743.38;695711;28;69437;-62
2022/10/13 00:28:50;;;;;;;928.47;865.08;;;;;;;9.96;62.40;101743.50;697487;28;44398;-62
2022/10/13 00:29:11;;;;;;;931.33;867.95;;;;;;;9.99;62.23;101742.38;698114;28;23473;-63
2022/10/13 00:29:32;;;;;;;940.85;877.08;;;;;;;10.01;62.17;101746.59;695542;28;23470;-62
2022/10/13 00:29:53;;;;;;;928.80;865.53;;;;;;;10.00;62.50;101739.53;694776;28;46271;-62
2022/10/13 00:30:16;;;;;;;923.33;860.25;;;;;;;10.01;62.09;101735.81;695516;28;23361;-63
2022/10/13 00:30:41;;;;;;;913.67;850.88;;;;;;;10.02;62.34;101740.22;694782;28;61971;-63
2022/10/13 00:31:02;;;;;;;930.90;867.65;;;;;;;10.03;62.00;101746.47;699095;28;1752;-63
2022/10/13 00:31:24;;;;;;;928.40;865.28;;;;;;;10.04;62.01;101749.00;698216;28;22375;-63
2022/10/13 00:31:46;;;;;;;922.22;859.33;;;;;;;10.05;62.09;101742.63;696767;28;70150;-63
2022/10/13 00:32:07;;;;;;;930.65;867.40;;;;;;;10.07;61.98;101740.63;697524;28;46308;-63
2022/10/13 00:32:29;;;;;;;945.70;881.85;;;;;;;10.09;61.95;101744.03;698144;28;23423;-63
2022/10/13 00:32:53;;;;;;;932.38;868.95;;;;;;;10.09;61.84;101738.63;697522;28;45291;-63
2022/10/13 00:33:15;;;;;;;933.55;870.05;;;;;;;10.09;61.69;101740.47;695754;28;92987;-63
2022/10/13 00:33:36;;;;;;;928.65;865.25;;;;;;;10.08;61.76;101741.47;696984;28;44375;-63
2022/10/13 00:33:59;;;;;;;917.17;854.20;;;;;;;10.07;61.85;101742.47;698430;28;23390;-63
2022/10/13 00:34:22;;;;;;;922.75;859.63;;;;;;;10.05;61.85;101742.63;696105;28;69413;-63
2022/10/13 00:34:43;;;;;;;928.13;864.75;;;;;;;10.06;61.58;101738.94;695966;28;69087;-63
2022/10/13 00:35:04;;;;;;;932.78;869.33;;;;;;;10.03;61.56;101731.13;695630;28;22403;-63
2022/10/13 00:35:25;;;;;;;929.45;865.97;;;;;;;10.06;61.67;101732.66;695513;28;22387;-63
2022/10/13 00:35:47;;;;;;;924.05;860.95;;;;;;;10.06;61.65;101740.75;695792;28;23491;-63
2022/10/13 00:36:09;;;;;;;929.47;866.17;;;;;;;10.05;61.47;101731.81;697610;28;45211;-63
2022/10/13 00:36:31;;;;;;;926.47;863.28;;;;;;;10.04;61.83;101740.06;696717;28;69437;-63
2022/10/13 00:36:52;;;;;;;924.80;861.78;;;;;;;10.02;61.82;101737.53;697982;28;23444;-63
2022/10/13 00:37:14;;;;;;;922.03;858.65;;;;;;;10.02;61.92;101737.53;697382;28;46325;-63
2022/10/13 00:37:36;;;;;;;917.50;854.40;;;;;;;10.02;61.68;101739.38;696161;28;23547;-63
2022/10/13 00:37:57;;;;;;;928.10;864.80;;;;;;;10.02;61.62;101739.38;694808;28;46291;-63
2022/10/13 00:38:22;;;;;;;915.95;853.08;;;;;;;10.01;61.69;101740.38;692333;28;115000;-62
2022/10/13 00:38:45;;;;;;;909.70;846.97;;;;;;;10.00;61.97;101736.81;695229;28;22412;-63
2022/10/13 00:39:07;;;;;;;919.35;856.45;;;;;;;10.01;61.96;101737.66;694068;28;69620;-63
2022/10/13 00:39:28;;;;;;;926.80;863.67;;;;;;;10.00;61.86;101736.81;694208;28;45267;-63
2022/10/13 00:39:49;;;;;;;906.47;844.00;;;;;;;9.99;61.65;101734.28;695487;28;22423;-63
2022/10/13 00:40:12;;;;;;;919.53;856.72;;;;;;;9.96;61.69;101735.41;694258;28;45407;-63
2022/10/13 00:40:33;;;;;;;923.40;860.30;;;;;;;9.96;61.80;101735.41;693576;28;69440;-63
2022/10/13 00:40:55;;;;;;;924.20;861.03;;;;;;;9.94;62.23;101732.03;695700;28;23468;-63
2022/10/13 00:41:16;;;;;;;919.65;856.65;;;;;;;9.93;62.09;101738.41;695438;28;22408;-63
2022/10/13 00:41:38;;;;;;;926.67;863.35;;;;;;;9.96;62.14;101734.56;694695;28;44384;-63
2022/10/13 00:42:00;;;;;;;934.67;871.22;;;;;;;9.95;62.11;101736.41;694850;28;46395;-63
2022/10/13 00:42:22;;;;;;;933.75;870.15;;;;;;;9.93;61.96;101735.72;696238;28;22592;-63
2022/10/13 00:42:43;;;;;;;923.80;860.65;;;;;;;9.95;62.14;101736.41;697286;28;46366;-63
2022/10/13 00:43:14;;;;;;;927.08;863.88;;;;;;;9.96;61.98;101732.72;697414;28;46263;-63
2022/10/13 00:43:52;;;;;;;934.42;870.65;;;;;;;9.98;62.20;101740.66;693374;28;137621;-63
2022/10/13 00:44:51;;;;;;;926.55;863.13;;;;;;;9.97;61.99;101742.53;694056;28;137725;-63
2022/10/13 00:45:22;;;;;;;925.83;862.60;;;;;;;10.00;62.20;101734.13;694194;28;137774;-63
2022/10/13 00:45:44;;;;;;;930.60;867.17;;;;;;;10.01;61.72;101738.50;694155;28;137307;-63
2022/10/13 00:46:06;;;;;;;915.65;852.67;;;;;;;10.01;61.83;101729.56;697282;28;46239;-63
2022/10/13 00:46:29;;;;;;;928.85;865.45;;;;;;;10.01;61.76;101726.88;698164;28;21537;-63
2022/10/13 00:46:52;;;;;;;923.33;860.22;;;;;;;10.02;61.74;101739.38;695811;28;92293;-63
2022/10/13 00:47:13;;;;;;;908.67;845.72;;;;;;;10.00;61.90;101736.81;695591;28;69418;-63
2022/10/13 00:47:38;;;;;;;912.47;849.65;;;;;;;9.99;61.65;101737.81;695465;28;23406;-63
2022/10/13 00:48:00;;;;;;;932.45;869.20;;;;;;;9.98;61.79;101722.63;692433;28;113577;-63
2022/10/13 00:48:24;;;;;;;925.25;862.22;;;;;;;10.00;61.86;101726.03;694614;28;46060;-63
2022/10/13 00:48:47;;;;;;;930.40;867.08;;;;;;;10.00;61.60;101727.88;691644;28;134581;-63
2022/10/13 00:49:11;;;;;;;925.05;861.88;;;;;;;9.98;62.11;101729.88;694805;28;46360;-63
2022/10/13 00:49:35;;;;;;;929.92;866.60;;;;;;;9.98;61.89;101725.31;691473;28;136371;-63
2022/10/13 00:49:58;;;;;;;907.00;844.42;;;;;;;10.00;62.09;101727.88;694725;28;46287;-63
2022/10/13 00:50:22;;;;;;;903.83;841.30;;;;;;;10.01;61.61;101735.81;694741;28;44072;-63
2022/10/13 00:50:48;;;;;;;908.67;846.00;;;;;;;10.01;61.84;101726.88;691645;28;136500;-63
2022/10/13 00:51:12;;;;;;;920.25;857.30;;;;;;;10.01;61.81;101729.56;694825;28;46321;-63
2022/10/13 00:51:38;;;;;;;930.83;867.45;;;;;;;10.00;61.72;101728.72;693835;28;69328;-63
2022/10/13 00:51:59;;;;;;;922.70;859.60;;;;;;;10.00;61.44;101727.88;691488;28;137926;-63
2022/10/13 00:52:20;;;;;;;935.88;872.35;;;;;;;9.98;61.65;101728.00;695534;28;23426;-62
2022/10/13 00:52:42;;;;;;;924.97;861.80;;;;;;;10.00;61.57;101731.44;694558;28;44397;-63
2022/10/13 00:53:06;;;;;;;913.22;850.42;;;;;;;9.98;61.40;101728.00;693905;28;68284;-64
2022/10/13 00:53:31;;;;;;;905.10;842.55;;;;;;;9.99;61.66;101724.31;693422;28;70301;-63
2022/10/13 00:53:52;;;;;;;900.70;838.30;;;;;;;9.97;61.42;101729.03;693113;28;92103;-64
2022/10/13 00:54:21;;;;;;;926.72;863.50;;;;;;;9.95;61.75;101725.59;692139;28;113599;-63
2022/10/13 00:54:43;;;;;;;932.15;868.75;;;;;;;9.94;61.57;101732.03;691511;28;138615;-64
2022/10/13 00:55:05;;;;;;;921.97;858.95;;;;;;;9.91;61.88;101729.63;694012;28;69539;-63
2022/10/13 00:55:30;;;;;;;929.55;866.25;;;;;;;9.89;61.89;101731.59;694421;28;45035;-64
2022/10/13 00:55:52;;;;;;;920.55;857.60;;;;;;;9.88;61.80;101724.53;689498;28;113438;-64
2022/10/13 00:56:16;;;;;;;923.03;859.97;;;;;;;9.86;61.97;101726.53;691752;28;46296;-64
2022/10/13 00:56:39;;;;;;;924.35;861.35;;;;;;;9.82;61.51;101725.09;690071;28;92677;-63
2022/10/13 00:57:01;;;;;;;936.88;873.22;;;;;;;9.84;61.78;101731.19;691316;28;45191;-64
2022/10/13 00:57:23;;;;;;;928.00;864.40;;;;;;;9.84;61.56;101736.59;692540;28;69406;-64
2022/10/13 00:57:46;;;;;;;911.38;848.60;;;;;;;9.82;61.76;101733.19;694655;28;45249;-64
2022/10/13 00:58:14;;;;;;;918.92;856.00;;;;;;;9.80;61.94;101733.34;695798;28;14971;-64
2022/10/13 00:58:38;;;;;;;927.25;863.70;;;;;;;9.78;61.69;101727.25;690727;28;138328;-64
2022/10/13 00:59:00;;;;;;;924.85;861.70;;;;;;;9.76;61.77;101729.25;693965;28;68171;-63
2022/10/13 00:59:26;;;;;;;928.80;865.42;;;;;;;9.72;61.83;101722.47;694723;28;46389;-63
2022/10/13 00:59:47;;;;;;;936.35;872.83;;;;;;;9.72;62.01;101726.00;691501;28;137997;-63
2022/10/13 01:00:11;;;;;;;922.30;859.20;;;;;;;9.71;62.08;101726.13;695380;28;22411;-64
2022/10/13 01:00:33;;;;;;;927.75;864.38;;;;;;;9.70;61.86;101728.00;692857;28;92106;-64
2022/10/13 01:00:54;;;;;;;915.97;853.20;;;;;;;9.70;61.91;101729.81;697122;28;46341;-63
2022/10/13 01:01:16;;;;;;;906.55;844.03;;;;;;;9.65;62.33;101722.16;697324;28;47179;-64
2022/10/13 01:01:38;;;;;;;916.80;853.83;;;;;;;9.68;62.00;101731.81;698185;28;22385;-64
2022/10/13 01:02:00;;;;;;;896.35;834.15;;;;;;;9.66;62.24;101725.75;697466;28;46262;-64
2022/10/13 01:02:21;;;;;;;920.45;857.38;;;;;;;9.65;62.21;101726.72;697265;28;46428;-63
2022/10/13 01:02:44;;;;;;;923.30;860.10;;;;;;;9.66;62.02;101731.13;696390;28;69425;-63
2022/10/13 01:03:05;;;;;;;918.60;855.70;;;;;;;9.66;62.02;101723.03;698286;28;23465;-63
2022/10/13 01:03:27;;;;;;;936.58;873.03;;;;;;;9.65;62.25;101732.13;697736;28;23452;-64
2022/10/13 01:03:48;;;;;;;935.17;871.67;;;;;;;9.63;62.02;101726.88;697588;28;46382;-63
2022/10/13 01:04:09;;;;;;;921.13;858.22;;;;;;;9.63;62.00;101726.88;698321;28;23728;-63
2022/10/13 01:04:33;;;;;;;918.83;855.97;;;;;;;9.62;61.94;101733.25;697204;28;45319;-63
2022/10/13 01:04:56;;;;;;;930.53;867.17;;;;;;;9.62;62.23;101732.41;696590;28;67474;-64
2022/10/13 01:05:18;;;;;;;927.20;863.88;;;;;;;9.61;61.85;101730.69;693119;28;92263;-63
2022/10/13 01:05:41;;;;;;;897.00;834.72;;;;;;;9.59;62.08;101735.41;694678;28;46334;-64
2022/10/13 01:06:03;;;;;;;896.63;834.35;;;;;;;9.57;61.85;101728.28;694781;28;44958;-63
2022/10/13 01:06:26;;;;;;;899.20;836.92;;;;;;;9.57;61.94;101730.16;693895;28;67492;-64
2022/10/13 01:06:47;;;;;;;899.83;837.42;;;;;;;9.56;62.15;101731.13;694647;28;44203;-64
2022/10/13 01:07:09;;;;;;;906.78;843.92;;;;;;;9.54;61.85;101725.91;694249;28;44395;-63
2022/10/13 01:07:30;;;;;;;934.05;870.47;;;;;;;9.51;61.99;101725.34;694604;28;44518;-63
2022/10/13 01:07:52;;;;;;;917.30;854.33;;;;;;;9.51;61.90;101728.91;695361;28;23429;-64
2022/10/13 01:08:15;;;;;;;886.83;824.83;;;;;;;9.49;62.41;101721.94;694589;28;46678;-64
2022/10/13 01:08:36;;;;;;;906.03;843.38;;;;;;;9.50;62.13;101729.91;693403;28;69395;-64
2022/10/13 01:08:57;;;;;;;903.20;840.67;;;;;;;9.50;62.40;101735.28;695496;28;22371;-64
2022/10/13 01:09:18;;;;;;;914.03;851.22;;;;;;;9.51;62.32;101730.72;695516;28;22388;-64
2022/10/13 01:09:41;;;;;;;917.03;854.03;;;;;;;9.50;62.21;101729.91;695469;28;22359;-63
2022/10/13 01:10:04;;;;;;;920.65;857.65;;;;;;;9.52;62.22;101730.59;694046;28;69227;-64
2022/10/13 01:10:34;;;;;;;922.78;859.70;;;;;;;9.53;62.16;101736.84;693802;28;69360;-63
2022/10/13 01:11:00;;;;;;;911.60;848.83;;;;;;;9.50;62.25;101726.34;691416;28;137331;-64
2022/10/13 01:11:35;;;;;;;919.20;856.20;;;;;;;9.50;62.47;101729.06;691437;28;137990;-63
2022/10/13 01:12:01;;;;;;;911.90;849.22;;;;;;;9.49;62.39;101725.50;691551;28;135985;-63
2022/10/13 01:12:34;;;;;;;914.70;852.10;;;;;;;9.48;62.07;101729.19;691424;28;137397;-63
2022/10/13 01:13:00;;;;;;;913.92;851.13;;;;;;;9.49;62.15;101727.34;691470;28;137739;-64
2022/10/13 01:13:31;;;;;;;928.85;865.53;;;;;;;9.47;62.44;101726.66;694080;28;61032;-64
2022/10/13 01:14:04;;;;;;;926.00;862.58;;;;;;;9.45;62.31;101725.91;692882;28;157473;-64
2022/10/13 01:14:29;;;;;;;918.97;855.92;;;;;;;9.45;62.67;101726.78;691225;28;138808;-64
2022/10/13 01:14:55;;;;;;;922.35;859.17;;;;;;;9.47;62.26;101734.75;693661;28;115075;-64
2022/10/13 01:15:22;;;;;;;913.28;850.50;;;;;;;9.47;62.13;101729.34;692253;28;113675;-63
2022/10/13 01:15:48;;;;;;;916.55;853.65;;;;;;;9.49;62.62;101732.75;691990;28;137605;-62
2022/10/13 01:16:12;;;;;;;929.67;866.40;;;;;;;9.50;62.91;101729.06;692104;28;137720;-64
2022/10/13 01:16:40;;;;;;;925.40;862.20;;;;;;;9.48;62.29;101734.59;695729;28;93127;-64
2022/10/13 01:17:05;;;;;;;919.53;856.47;;;;;;;9.47;62.78;101732.88;691877;28;136349;-64
2022/10/13 01:17:30;;;;;;;912.15;849.22;;;;;;;9.46;62.75;101724.94;694650;28;115226;-64
2022/10/13 01:17:58;;;;;;;911.90;849.10;;;;;;;9.52;62.56;101729.75;692971;28;115517;-63
2022/10/13 01:18:24;;;;;;;941.67;877.88;;;;;;;9.54;62.51;101728.63;691297;28;138029;-63
2022/10/13 01:18:50;;;;;;;925.97;862.58;;;;;;;9.55;62.43;101729.47;693068;28;101894;-63
2022/10/13 01:19:36;;;;;;;936.00;872.30;;;;;;;9.59;62.45;101725.44;691228;28;136245;-64
2022/10/13 01:20:37;;;;;;;907.53;844.97;;;;;;;9.62;62.33;101724.31;691461;28;136279;-63
2022/10/13 01:21:05;;;;;;;931.47;868.22;;;;;;;9.60;62.38;101726.31;685673;28;137709;-63
2022/10/13 01:21:32;;;;;;;916.65;853.70;;;;;;;9.59;62.44;101728.16;693814;28;61585;-64
2022/10/13 01:22:00;;;;;;;904.50;842.00;;;;;;;9.60;62.30;101723.63;692032;28;115126;-64
2022/10/13 01:22:38;;;;;;;924.33;861.10;;;;;;;9.57;62.22;101719.38;691151;28;137569;-64
2022/10/13 01:23:11;;;;;;;921.28;858.30;;;;;;;9.54;62.15;101723.22;691288;28;137806;-63
2022/10/13 01:23:59;;;;;;;932.63;869.17;;;;;;;9.51;62.24;101725.34;690763;28;135718;-64
2022/10/13 01:24:41;;;;;;;928.42;865.13;;;;;;;9.47;62.53;101722.09;691315;28;138310;-64
2022/10/13 01:25:09;;;;;;;918.25;855.33;;;;;;;9.49;62.46;101721.94;691587;28;136050;-64
2022/10/13 01:25:48;;;;;;;922.80;859.60;;;;;;;9.46;62.58;101715.00;691253;28;138657;-64
2022/10/13 01:26:22;;;;;;;917.97;855.03;;;;;;;9.46;62.43;101714.16;691300;28;136968;-62
2022/10/13 01:27:07;;;;;;;932.17;868.75;;;;;;;9.48;62.53;101717.53;691282;28;136026;-64
2022/10/13 01:28:00;;;;;;;934.95;871.33;;;;;;;9.49;62.47;101717.41;691072;28;135967;-64
2022/10/13 01:28:34;;;;;;;905.80;843.38;;;;;;;9.47;62.45;101719.41;682822;28;137224;-64
2022/10/13 01:29:13;;;;;;;922.47;859.40;;;;;;;9.45;62.38;101715.13;681241;28;180948;-64
2022/10/13 01:30:04;;;;;;;931.00;867.60;;;;;;;9.41;62.57;101713.75;682792;28;136128;-63
2022/10/13 01:30:33;;;;;;;936.80;873.10;;;;;;;9.40;62.75;101718.28;691114;28;61178;-63
2022/10/13 01:30:57;;;;;;;932.88;869.33;;;;;;;9.38;62.86;101715.72;693750;28;68311;-64
2022/10/13 01:31:20;;;;;;;904.90;842.20;;;;;;;9.37;62.72;101713.16;694764;28;38346;-63
2022/10/13 01:31:46;;;;;;;899.53;837.05;;;;;;;9.37;62.54;101719.44;694504;28;45118;-63
2022/10/13 01:32:13;;;;;;;905.83;843.25;;;;;;;9.33;62.67;101718.00;691560;28;136816;-64
2022/10/13 01:32:52;;;;;;;913.17;850.28;;;;;;;9.34;63.10;101713.44;691795;28;138045;-64
2022/10/13 01:33:25;;;;;;;907.88;845.15;;;;;;;9.35;63.10;101720.56;696852;28;60928;-64
2022/10/13 01:33:51;;;;;;;913.38;850.58;;;;;;;9.31;62.74;101711.91;693306;28;137252;-63
2022/10/13 01:34:18;;;;;;;922.97;859.85;;;;;;;9.34;62.97;101718.84;694154;28;136318;-64
2022/10/13 01:34:43;;;;;;;922.95;859.80;;;;;;;9.33;62.81;101712.63;694040;28;138135;-64
2022/10/13 01:35:08;;;;;;;918.00;855.03;;;;;;;9.32;62.74;101710.06;695094;28;113942;-64
2022/10/13 01:35:41;;;;;;;899.58;837.05;;;;;;;9.30;62.76;101709.38;694974;28;113562;-63
2022/10/13 01:36:08;;;;;;;905.70;843.00;;;;;;;9.29;63.10;101713.03;693754;28;135361;-64
2022/10/13 01:36:37;;;;;;;917.92;855.08;;;;;;;9.27;62.79;101707.81;696486;28;61340;-64
2022/10/13 01:37:04;;;;;;;913.97;851.05;;;;;;;9.20;62.71;101699.44;693579;28;136265;-63
2022/10/13 01:37:31;;;;;;;929.40;865.85;;;;;;;9.25;62.93;101719.72;693808;28;138133;-64
2022/10/13 01:37:56;;;;;;;924.53;861.20;;;;;;;9.24;63.05;101712.63;694041;28;136362;-65
2022/10/13 01:38:25;;;;;;;915.00;851.97;;;;;;;9.22;62.75;101709.25;691573;28;136380;-63
2022/10/13 01:38:53;;;;;;;914.17;851.13;;;;;;;9.22;62.97;101703.84;690633;28;157447;-64
2022/10/13 01:39:20;;;;;;;894.97;832.70;;;;;;;9.21;62.85;101711.06;693008;28;160952;-63
2022/10/13 01:39:43;;;;;;;922.60;859.42;;;;;;;9.18;63.06;101706.84;694046;28;137752;-64
2022/10/13 01:40:09;;;;;;;935.55;872.05;;;;;;;9.18;62.77;101706.84;695500;28;93140;-63
2022/10/13 01:40:37;;;;;;;938.95;875.35;;;;;;;9.17;63.07;101706.97;694619;28;113241;-63
2022/10/13 01:41:04;;;;;;;933.05;869.55;;;;;;;9.15;62.97;101706.25;691155;28;138677;-63
2022/10/13 01:41:28;;;;;;;916.22;853.22;;;;;;;9.15;62.87;101711.66;690397;28;161131;-63
2022/10/13 01:41:52;;;;;;;896.75;834.42;;;;;;;9.15;63.08;101701.75;692270;28;115108;-63
2022/10/13 01:42:21;;;;;;;897.88;835.45;;;;;;;9.15;62.96;101714.34;692976;28;92239;-63
2022/10/13 01:42:48;;;;;;;917.25;854.25;;;;;;;9.15;63.10;101711.66;691406;28;137935;-63
2022/10/13 01:43:11;;;;;;;909.75;846.67;;;;;;;9.14;63.01;101707.28;694164;28;61993;-63
2022/10/13 01:43:37;;;;;;;890.88;828.47;;;;;;;9.13;63.19;101706.41;693393;28;67479;-63
2022/10/13 01:44:04;;;;;;;916.28;853.28;;;;;;;9.15;63.15;101706.25;691403;28;137383;-63
2022/10/13 01:44:28;;;;;;;908.33;845.72;;;;;;;9.16;62.98;101705.28;691375;28;138077;-64
2022/10/13 01:44:54;;;;;;;923.15;860.05;;;;;;;9.18;63.03;101711.34;692926;28;90358;-64
2022/10/13 01:45:18;;;;;;;911.20;848.42;;;;;;;9.18;62.94;101703.28;690514;28;161155;-64
2022/10/13 01:45:44;;;;;;;911.70;848.85;;;;;;;9.17;62.94;101706.97;694092;28;82565;-64
2022/10/13 01:46:10;;;;;;;923.55;860.42;;;;;;;9.15;62.97;101701.75;691389;28;137864;-64
2022/10/13 01:46:33;;;;;;;922.80;859.58;;;;;;;9.16;63.27;101706.13;692120;28;115111;-63
2022/10/13 01:46:55;;;;;;;904.45;841.75;;;;;;;9.14;63.18;101704.56;692523;28;92460;-63
2022/10/13 01:47:17;;;;;;;914.33;851.13;;;;;;;9.16;63.17;101700.72;695180;28;23677;-63
2022/10/13 01:47:41;;;;;;;916.00;852.97;;;;;;;9.17;63.01;101705.13;692871;28;92285;-63
2022/10/13 01:48:04;;;;;;;911.60;848.80;;;;;;;9.17;63.10;101698.91;693826;28;69404;-62
2022/10/13 01:48:27;;;;;;;918.10;854.95;;;;;;;9.16;63.07;101699.88;693229;28;69428;-63
2022/10/13 01:48:52;;;;;;;916.63;853.60;;;;;;;9.18;62.92;101703.28;696235;28;897;-62
2022/10/13 01:49:16;;;;;;;914.40;851.42;;;;;;;9.19;63.04;101704.97;692947;28;92242;-62
2022/10/13 01:49:38;;;;;;;921.70;858.58;;;;;;;9.20;63.19;101699.44;693054;28;91070;-62
2022/10/13 01:49:59;;;;;;;939.40;875.72;;;;;;;9.17;62.93;101694.34;694727;28;46566;-64
2022/10/13 01:50:21;;;;;;;914.35;851.40;;;;;;;9.20;63.01;101695.91;694523;28;46470;-64
2022/10/13 01:50:43;;;;;;;910.83;848.03;;;;;;;9.20;63.03;101698.59;692436;28;24181;-63
2022/10/13 01:51:06;;;;;;;917.03;854.10;;;;;;;9.20;62.91;101702.16;690932;28;69515;-64
2022/10/13 01:51:28;;;;;;;922.92;859.83;;;;;;;9.18;63.05;101696.06;690827;28;67303;-64